sensor_id;sensor_type;location;lat;lon;timestamp;temperature;humidity
46085;DHT22;31823;47.032;8.310;2023-08-31T00:01:11;13.00;99.90
46085;DHT22;31823;47.032;8.310;2023-08-31T00:03:37;12.90;99.90
46085;DHT22;31823;47.032;8.310;2023-08-31T00:06:03;12.80;99.90
46085;DHT22;31823;47.032;8.310;2023-08-31T00:08:34;12.80;99.90
46085;DHT22;31823;47.032;8.310;2023-08-31T00:11:00;12.80;99.90
46085;DHT22;31823;47.032;8.310;2023-08-31T00:13:26;12.80;99.90
46085;DHT22;31823;47.032;8.310;2023-08-31T00:15:55;12.90;99.90
46085;DHT22;31823;47.032;8.310;2023-08-31T00:18:21;13.00;99.90
46085;DHT22;31823;47.032;8.310;2023-08-31T00:20:47;12.90;99.90
46085;DHT22;31823;47.032;8.310;2023-08-31T00:23:12;12.90;99.90
46085;DHT22;31823;47.032;8.310;2023-08-31T00:25:38;12.90;99.90
46085;DHT22;31823;47.032;8.310;2023-08-31T00:28:04;12.90;99.90
46085;DHT22;31823;47.032;8.310;2023-08-31T00:30:31;12.90;99.90
46085;DHT22;31823;47.032;8.310;2023-08-31T00:32:58;12.80;99.90
46085;DHT22;31823;47.032;8.310;2023-08-31T00:35:25;12.80;99.90
46085;DHT22;31823;47.032;8.310;2023-08-31T00:37:52;12.80;99.90
46085;DHT22;31823;47.032;8.310;2023-08-31T00:40:22;12.80;99.90
46085;DHT22;31823;47.032;8.310;2023-08-31T00:42:48;12.70;99.90
46085;DHT22;31823;47.032;8.310;2023-08-31T00:45:13;12.70;99.90
46085;DHT22;31823;47.032;8.310;2023-08-31T00:47:39;12.70;99.90
46085;DHT22;31823;47.032;8.310;2023-08-31T00:50:06;12.70;99.90
46085;DHT22;31823;47.032;8.310;2023-08-31T00:52:33;12.60;99.90
46085;DHT22;31823;47.032;8.310;2023-08-31T00:54:59;12.60;99.90
46085;DHT22;31823;47.032;8.310;2023-08-31T00:57:27;12.60;99.90
46085;DHT22;31823;47.032;8.310;2023-08-31T00:59:52;12.60;99.90
46085;DHT22;31823;47.032;8.310;2023-08-31T01:02:30;12.50;99.90
46085;DHT22;31823;47.032;8.310;2023-08-31T01:05:29;12.50;99.90
46085;DHT22;31823;47.032;8.310;2023-08-31T01:13:03;12.70;99.90
46085;DHT22;31823;47.032;8.310;2023-08-31T01:15:30;12.70;99.90
46085;DHT22;31823;47.032;8.310;2023-08-31T01:17:57;12.70;99.90
46085;DHT22;31823;47.032;8.310;2023-08-31T01:20:32;12.70;99.90
46085;DHT22;31823;47.032;8.310;2023-08-31T01:23:04;12.70;99.90
46085;DHT22;31823;47.032;8.310;2023-08-31T01:25:32;12.70;99.90
46085;DHT22;31823;47.032;8.310;2023-08-31T01:28:01;12.70;99.90
46085;DHT22;31823;47.032;8.310;2023-08-31T01:30:30;12.70;99.90
46085;DHT22;31823;47.032;8.310;2023-08-31T01:32:56;12.80;99.90
46085;DHT22;31823;47.032;8.310;2023-08-31T01:35:22;12.80;99.90
46085;DHT22;31823;47.032;8.310;2023-08-31T01:37:53;12.90;99.90
46085;DHT22;31823;47.032;8.310;2023-08-31T01:40:27;12.90;99.90
46085;DHT22;31823;47.032;8.310;2023-08-31T01:42:58;12.80;99.90
46085;DHT22;31823;47.032;8.310;2023-08-31T01:45:26;12.90;99.90
46085;DHT22;31823;47.032;8.310;2023-08-31T01:47:51;12.80;99.90
46085;DHT22;31823;47.032;8.310;2023-08-31T01:50:17;12.80;99.90
46085;DHT22;31823;47.032;8.310;2023-08-31T01:52:43;12.80;99.90
46085;DHT22;31823;47.032;8.310;2023-08-31T01:55:08;12.90;99.90
46085;DHT22;31823;47.032;8.310;2023-08-31T01:57:34;12.80;99.90
46085;DHT22;31823;47.032;8.310;2023-08-31T02:00:00;12.80;99.90
46085;DHT22;31823;47.032;8.310;2023-08-31T02:02:25;12.90;99.90
46085;DHT22;31823;47.032;8.310;2023-08-31T02:04:51;12.90;99.90
46085;DHT22;31823;47.032;8.310;2023-08-31T02:07:17;12.90;99.90
46085;DHT22;31823;47.032;8.310;2023-08-31T02:09:43;12.90;99.90
46085;DHT22;31823;47.032;8.310;2023-08-31T02:12:08;12.90;99.90
46085;DHT22;31823;47.032;8.310;2023-08-31T02:14:37;12.90;99.90
46085;DHT22;31823;47.032;8.310;2023-08-31T02:17:03;12.90;99.90
46085;DHT22;31823;47.032;8.310;2023-08-31T02:19:28;12.90;99.90
46085;DHT22;31823;47.032;8.310;2023-08-31T02:21:54;12.90;99.90
46085;DHT22;31823;47.032;8.310;2023-08-31T02:24:20;12.90;99.90
46085;DHT22;31823;47.032;8.310;2023-08-31T02:26:45;12.90;99.90
46085;DHT22;31823;47.032;8.310;2023-08-31T02:29:11;12.90;99.90
46085;DHT22;31823;47.032;8.310;2023-08-31T02:31:36;12.90;99.90
46085;DHT22;31823;47.032;8.310;2023-08-31T02:34:03;12.90;99.90
46085;DHT22;31823;47.032;8.310;2023-08-31T02:36:29;12.90;99.90
46085;DHT22;31823;47.032;8.310;2023-08-31T02:38:55;13.00;99.90
46085;DHT22;31823;47.032;8.310;2023-08-31T02:41:21;12.90;99.90
46085;DHT22;31823;47.032;8.310;2023-08-31T02:43:47;13.00;99.90
46085;DHT22;31823;47.032;8.310;2023-08-31T02:46:15;13.00;99.90
46085;DHT22;31823;47.032;8.310;2023-08-31T02:48:40;13.00;99.90
46085;DHT22;31823;47.032;8.310;2023-08-31T02:51:06;12.90;99.90
46085;DHT22;31823;47.032;8.310;2023-08-31T02:53:31;12.90;99.90
46085;DHT22;31823;47.032;8.310;2023-08-31T02:55:57;12.90;99.90
46085;DHT22;31823;47.032;8.310;2023-08-31T02:58:23;12.90;99.90
46085;DHT22;31823;47.032;8.310;2023-08-31T03:00:48;12.90;99.90
46085;DHT22;31823;47.032;8.310;2023-08-31T03:03:16;12.90;99.90
46085;DHT22;31823;47.032;8.310;2023-08-31T03:05:41;12.90;99.90
46085;DHT22;31823;47.032;8.310;2023-08-31T03:08:07;12.90;99.90
46085;DHT22;31823;47.032;8.310;2023-08-31T03:10:33;12.90;99.90
46085;DHT22;31823;47.032;8.310;2023-08-31T03:12:58;12.90;99.90
46085;DHT22;31823;47.032;8.310;2023-08-31T03:15:24;12.90;99.90
46085;DHT22;31823;47.032;8.310;2023-08-31T03:17:49;12.80;99.90
46085;DHT22;31823;47.032;8.310;2023-08-31T03:20:15;12.80;99.90
46085;DHT22;31823;47.032;8.310;2023-08-31T03:22:40;12.90;99.90
46085;DHT22;31823;47.032;8.310;2023-08-31T03:25:06;12.90;99.90
46085;DHT22;31823;47.032;8.310;2023-08-31T03:27:32;12.90;99.90
46085;DHT22;31823;47.032;8.310;2023-08-31T03:29:57;12.80;99.90
46085;DHT22;31823;47.032;8.310;2023-08-31T03:32:23;12.80;99.90
46085;DHT22;31823;47.032;8.310;2023-08-31T03:34:48;12.80;99.90
46085;DHT22;31823;47.032;8.310;2023-08-31T03:37:15;12.70;99.90
46085;DHT22;31823;47.032;8.310;2023-08-31T03:39:41;12.70;99.90
46085;DHT22;31823;47.032;8.310;2023-08-31T03:42:09;12.80;99.90
46085;DHT22;31823;47.032;8.310;2023-08-31T03:44:35;12.80;99.90
46085;DHT22;31823;47.032;8.310;2023-08-31T03:47:02;12.80;99.90
46085;DHT22;31823;47.032;8.310;2023-08-31T03:49:28;12.80;99.90
46085;DHT22;31823;47.032;8.310;2023-08-31T03:51:53;12.70;99.90
46085;DHT22;31823;47.032;8.310;2023-08-31T03:54:20;12.80;99.90
46085;DHT22;31823;47.032;8.310;2023-08-31T03:56:45;12.70;99.90
46085;DHT22;31823;47.032;8.310;2023-08-31T03:59:12;12.70;99.90
46085;DHT22;31823;47.032;8.310;2023-08-31T04:01:37;12.70;99.90
46085;DHT22;31823;47.032;8.310;2023-08-31T04:04:03;12.60;99.90
46085;DHT22;31823;47.032;8.310;2023-08-31T04:06:29;12.70;99.90
46085;DHT22;31823;47.032;8.310;2023-08-31T04:08:55;12.60;99.90
46085;DHT22;31823;47.032;8.310;2023-08-31T04:11:21;12.60;99.90
46085;DHT22;31823;47.032;8.310;2023-08-31T04:13:46;12.50;99.90
46085;DHT22;31823;47.032;8.310;2023-08-31T04:16:12;12.60;99.90
46085;DHT22;31823;47.032;8.310;2023-08-31T04:18:37;12.50;99.90
46085;DHT22;31823;47.032;8.310;2023-08-31T04:21:03;12.50;99.90
46085;DHT22;31823;47.032;8.310;2023-08-31T04:23:29;12.40;99.90
46085;DHT22;31823;47.032;8.310;2023-08-31T04:25:55;12.40;99.90
46085;DHT22;31823;47.032;8.310;2023-08-31T04:28:23;12.40;99.90
46085;DHT22;31823;47.032;8.310;2023-08-31T04:30:49;12.30;99.90
46085;DHT22;31823;47.032;8.310;2023-08-31T04:33:14;12.30;99.90
46085;DHT22;31823;47.032;8.310;2023-08-31T04:35:40;12.40;99.90
46085;DHT22;31823;47.032;8.310;2023-08-31T04:38:05;12.40;99.90
46085;DHT22;31823;47.032;8.310;2023-08-31T04:40:31;12.40;99.90
46085;DHT22;31823;47.032;8.310;2023-08-31T04:42:56;12.40;99.90
46085;DHT22;31823;47.032;8.310;2023-08-31T04:45:22;12.30;99.90
46085;DHT22;31823;47.032;8.310;2023-08-31T04:47:48;12.40;99.90
46085;DHT22;31823;47.032;8.310;2023-08-31T04:50:14;12.40;99.90
46085;DHT22;31823;47.032;8.310;2023-08-31T04:52:40;12.30;99.90
46085;DHT22;31823;47.032;8.310;2023-08-31T04:55:06;12.20;99.90
46085;DHT22;31823;47.032;8.310;2023-08-31T04:57:38;12.20;99.90
46085;DHT22;31823;47.032;8.310;2023-08-31T05:00:10;12.20;99.90
46085;DHT22;31823;47.032;8.310;2023-08-31T05:02:37;12.20;99.90
46085;DHT22;31823;47.032;8.310;2023-08-31T05:05:03;12.20;99.90
46085;DHT22;31823;47.032;8.310;2023-08-31T05:07:29;12.20;99.90
46085;DHT22;31823;47.032;8.310;2023-08-31T05:09:55;12.30;99.90
46085;DHT22;31823;47.032;8.310;2023-08-31T05:12:20;12.30;99.90
46085;DHT22;31823;47.032;8.310;2023-08-31T05:14:46;12.30;99.90
46085;DHT22;31823;47.032;8.310;2023-08-31T05:17:11;12.20;99.90
46085;DHT22;31823;47.032;8.310;2023-08-31T05:19:37;12.30;99.90
46085;DHT22;31823;47.032;8.310;2023-08-31T05:22:04;12.40;99.90
46085;DHT22;31823;47.032;8.310;2023-08-31T05:24:29;12.40;99.90
46085;DHT22;31823;47.032;8.310;2023-08-31T05:26:55;12.40;99.90
46085;DHT22;31823;47.032;8.310;2023-08-31T05:29:20;12.50;99.90
46085;DHT22;31823;47.032;8.310;2023-08-31T05:31:46;12.50;99.90
46085;DHT22;31823;47.032;8.310;2023-08-31T05:34:16;12.60;99.90
46085;DHT22;31823;47.032;8.310;2023-08-31T05:36:41;12.60;99.90
46085;DHT22;31823;47.032;8.310;2023-08-31T05:39:08;12.70;99.90
46085;DHT22;31823;47.032;8.310;2023-08-31T05:41:34;12.70;99.90
46085;DHT22;31823;47.032;8.310;2023-08-31T05:43:59;12.70;99.90
46085;DHT22;31823;47.032;8.310;2023-08-31T05:46:25;12.80;99.90
46085;DHT22;31823;47.032;8.310;2023-08-31T05:48:51;12.80;99.90
46085;DHT22;31823;47.032;8.310;2023-08-31T05:51:17;12.90;99.90
46085;DHT22;31823;47.032;8.310;2023-08-31T05:53:43;12.90;99.90
46085;DHT22;31823;47.032;8.310;2023-08-31T05:56:09;13.00;99.90
46085;DHT22;31823;47.032;8.310;2023-08-31T05:58:35;13.00;99.90
46085;DHT22;31823;47.032;8.310;2023-08-31T06:01:04;13.00;99.90
46085;DHT22;31823;47.032;8.310;2023-08-31T06:03:30;13.00;99.90
46085;DHT22;31823;47.032;8.310;2023-08-31T06:05:57;13.10;99.90
46085;DHT22;31823;47.032;8.310;2023-08-31T06:08:24;13.10;99.90
46085;DHT22;31823;47.032;8.310;2023-08-31T06:10:50;13.20;99.90
46085;DHT22;31823;47.032;8.310;2023-08-31T06:13:15;13.30;99.90
46085;DHT22;31823;47.032;8.310;2023-08-31T06:15:41;13.40;99.90
46085;DHT22;31823;47.032;8.310;2023-08-31T06:18:07;13.50;99.90
46085;DHT22;31823;47.032;8.310;2023-08-31T06:20:32;13.60;99.90
46085;DHT22;31823;47.032;8.310;2023-08-31T06:22:59;13.80;99.90
46085;DHT22;31823;47.032;8.310;2023-08-31T06:25:25;13.80;99.90
46085;DHT22;31823;47.032;8.310;2023-08-31T06:27:50;13.80;99.90
46085;DHT22;31823;47.032;8.310;2023-08-31T06:30:17;13.70;99.90
46085;DHT22;31823;47.032;8.310;2023-08-31T06:32:43;13.60;99.90
46085;DHT22;31823;47.032;8.310;2023-08-31T06:35:10;13.60;99.90
46085;DHT22;31823;47.032;8.310;2023-08-31T06:37:36;13.60;99.90
46085;DHT22;31823;47.032;8.310;2023-08-31T06:40:02;13.60;99.90
46085;DHT22;31823;47.032;8.310;2023-08-31T06:42:27;13.70;99.90
46085;DHT22;31823;47.032;8.310;2023-08-31T06:44:53;13.70;99.90
46085;DHT22;31823;47.032;8.310;2023-08-31T06:47:18;13.70;99.90
46085;DHT22;31823;47.032;8.310;2023-08-31T06:49:45;13.80;99.90
46085;DHT22;31823;47.032;8.310;2023-08-31T06:52:11;13.80;99.90
46085;DHT22;31823;47.032;8.310;2023-08-31T06:54:36;13.90;99.90
46085;DHT22;31823;47.032;8.310;2023-08-31T06:57:02;13.80;99.90
46085;DHT22;31823;47.032;8.310;2023-08-31T06:59:28;13.80;99.90
46085;DHT22;31823;47.032;8.310;2023-08-31T07:01:53;13.80;99.90
46085;DHT22;31823;47.032;8.310;2023-08-31T07:04:19;13.80;99.90
46085;DHT22;31823;47.032;8.310;2023-08-31T07:06:44;13.90;99.90
46085;DHT22;31823;47.032;8.310;2023-08-31T07:09:10;13.90;99.90
46085;DHT22;31823;47.032;8.310;2023-08-31T07:11:35;14.00;99.90
46085;DHT22;31823;47.032;8.310;2023-08-31T07:14:01;14.10;99.90
46085;DHT22;31823;47.032;8.310;2023-08-31T07:16:27;14.10;99.90
46085;DHT22;31823;47.032;8.310;2023-08-31T07:18:52;14.10;99.90
46085;DHT22;31823;47.032;8.310;2023-08-31T07:21:18;14.10;99.90
46085;DHT22;31823;47.032;8.310;2023-08-31T07:23:43;14.00;99.90
46085;DHT22;31823;47.032;8.310;2023-08-31T07:26:09;14.00;99.90
46085;DHT22;31823;47.032;8.310;2023-08-31T07:28:35;14.10;99.90
46085;DHT22;31823;47.032;8.310;2023-08-31T07:31:09;14.10;99.90
46085;DHT22;31823;47.032;8.310;2023-08-31T07:33:35;14.20;99.90
46085;DHT22;31823;47.032;8.310;2023-08-31T07:36:01;14.40;99.90
46085;DHT22;31823;47.032;8.310;2023-08-31T07:38:30;14.40;99.90
46085;DHT22;31823;47.032;8.310;2023-08-31T07:40:55;14.40;99.90
46085;DHT22;31823;47.032;8.310;2023-08-31T07:43:21;14.40;99.90
46085;DHT22;31823;47.032;8.310;2023-08-31T07:45:47;14.50;99.90
46085;DHT22;31823;47.032;8.310;2023-08-31T07:48:12;14.60;99.90
46085;DHT22;31823;47.032;8.310;2023-08-31T07:50:40;14.60;99.90
46085;DHT22;31823;47.032;8.310;2023-08-31T07:53:06;14.70;99.90
46085;DHT22;31823;47.032;8.310;2023-08-31T07:55:33;14.70;99.90
46085;DHT22;31823;47.032;8.310;2023-08-31T07:57:58;14.60;99.90
46085;DHT22;31823;47.032;8.310;2023-08-31T08:00:24;14.60;99.90
46085;DHT22;31823;47.032;8.310;2023-08-31T08:02:49;14.50;99.90
46085;DHT22;31823;47.032;8.310;2023-08-31T08:05:15;14.60;99.90
46085;DHT22;31823;47.032;8.310;2023-08-31T08:07:40;14.50;99.90
46085;DHT22;31823;47.032;8.310;2023-08-31T08:10:08;14.50;99.90
46085;DHT22;31823;47.032;8.310;2023-08-31T08:12:38;14.70;99.90
46085;DHT22;31823;47.032;8.310;2023-08-31T08:15:05;14.90;99.90
46085;DHT22;31823;47.032;8.310;2023-08-31T08:17:32;15.00;99.90
46085;DHT22;31823;47.032;8.310;2023-08-31T08:19:57;15.00;99.90
46085;DHT22;31823;47.032;8.310;2023-08-31T08:22:24;15.20;99.90
46085;DHT22;31823;47.032;8.310;2023-08-31T08:24:50;15.40;99.90
46085;DHT22;31823;47.032;8.310;2023-08-31T08:27:15;15.50;99.90
46085;DHT22;31823;47.032;8.310;2023-08-31T08:29:43;15.50;99.90
46085;DHT22;31823;47.032;8.310;2023-08-31T08:32:09;15.50;99.90
46085;DHT22;31823;47.032;8.310;2023-08-31T08:34:35;15.50;99.90
46085;DHT22;31823;47.032;8.310;2023-08-31T08:37:00;15.40;99.90
46085;DHT22;31823;47.032;8.310;2023-08-31T08:39:26;15.50;99.90
46085;DHT22;31823;47.032;8.310;2023-08-31T08:41:54;15.50;99.90
46085;DHT22;31823;47.032;8.310;2023-08-31T08:44:22;15.60;99.90
46085;DHT22;31823;47.032;8.310;2023-08-31T08:46:51;15.60;99.90
46085;DHT22;31823;47.032;8.310;2023-08-31T08:49:18;15.60;99.90
46085;DHT22;31823;47.032;8.310;2023-08-31T08:51:45;15.60;99.90
46085;DHT22;31823;47.032;8.310;2023-08-31T08:54:13;15.70;99.90
46085;DHT22;31823;47.032;8.310;2023-08-31T08:56:38;15.70;99.90
46085;DHT22;31823;47.032;8.310;2023-08-31T08:59:05;15.70;99.90
46085;DHT22;31823;47.032;8.310;2023-08-31T09:01:32;15.90;99.90
46085;DHT22;31823;47.032;8.310;2023-08-31T09:04:00;16.00;99.90
46085;DHT22;31823;47.032;8.310;2023-08-31T09:06:27;16.00;99.90
46085;DHT22;31823;47.032;8.310;2023-08-31T09:08:56;16.10;99.90
46085;DHT22;31823;47.032;8.310;2023-08-31T09:11:22;16.20;99.90
46085;DHT22;31823;47.032;8.310;2023-08-31T09:13:52;16.20;99.90
46085;DHT22;31823;47.032;8.310;2023-08-31T09:16:24;16.30;99.90
46085;DHT22;31823;47.032;8.310;2023-08-31T09:18:51;16.30;99.90
46085;DHT22;31823;47.032;8.310;2023-08-31T09:21:17;16.40;99.90
46085;DHT22;31823;47.032;8.310;2023-08-31T09:23:47;16.30;99.90
46085;DHT22;31823;47.032;8.310;2023-08-31T09:26:21;16.40;99.90
46085;DHT22;31823;47.032;8.310;2023-08-31T09:28:46;16.30;99.90
46085;DHT22;31823;47.032;8.310;2023-08-31T09:31:12;16.20;99.90
46085;DHT22;31823;47.032;8.310;2023-08-31T09:33:37;16.30;99.90
46085;DHT22;31823;47.032;8.310;2023-08-31T09:36:03;16.30;99.90
46085;DHT22;31823;47.032;8.310;2023-08-31T09:38:31;16.60;99.90
46085;DHT22;31823;47.032;8.310;2023-08-31T09:41:04;16.90;99.90
46085;DHT22;31823;47.032;8.310;2023-08-31T09:43:31;17.30;99.90
46085;DHT22;31823;47.032;8.310;2023-08-31T09:45:57;17.50;99.90
46085;DHT22;31823;47.032;8.310;2023-08-31T09:48:23;17.80;99.90
46085;DHT22;31823;47.032;8.310;2023-08-31T09:50:51;17.60;99.90
46085;DHT22;31823;47.032;8.310;2023-08-31T09:53:19;17.60;99.90
46085;DHT22;31823;47.032;8.310;2023-08-31T09:55:47;17.60;99.90
46085;DHT22;31823;47.032;8.310;2023-08-31T09:58:19;17.50;99.90
46085;DHT22;31823;47.032;8.310;2023-08-31T10:00:46;17.30;99.90
46085;DHT22;31823;47.032;8.310;2023-08-31T10:03:14;17.20;99.90
46085;DHT22;31823;47.032;8.310;2023-08-31T10:05:44;17.00;99.90
46085;DHT22;31823;47.032;8.310;2023-08-31T10:08:11;17.00;99.90
46085;DHT22;31823;47.032;8.310;2023-08-31T10:10:37;17.10;99.90
46085;DHT22;31823;47.032;8.310;2023-08-31T10:13:04;17.00;99.90
46085;DHT22;31823;47.032;8.310;2023-08-31T10:15:32;17.00;99.90
46085;DHT22;31823;47.032;8.310;2023-08-31T10:18:05;17.00;99.90
46085;DHT22;31823;47.032;8.310;2023-08-31T10:20:32;17.00;99.90
46085;DHT22;31823;47.032;8.310;2023-08-31T10:23:02;16.90;99.90
46085;DHT22;31823;47.032;8.310;2023-08-31T10:28:20;16.70;99.90
46085;DHT22;31823;47.032;8.310;2023-08-31T10:31:06;16.60;99.90
46085;DHT22;31823;47.032;8.310;2023-08-31T10:33:55;16.70;99.90
46085;DHT22;31823;47.032;8.310;2023-08-31T10:36:38;16.80;99.90
46085;DHT22;31823;47.032;8.310;2023-08-31T10:39:17;16.80;99.90
46085;DHT22;31823;47.032;8.310;2023-08-31T10:41:56;17.00;99.90
46085;DHT22;31823;47.032;8.310;2023-08-31T10:44:23;17.10;99.90
46085;DHT22;31823;47.032;8.310;2023-08-31T10:46:49;17.20;99.90
46085;DHT22;31823;47.032;8.310;2023-08-31T10:49:17;17.20;99.90
46085;DHT22;31823;47.032;8.310;2023-08-31T10:51:45;17.10;99.90
46085;DHT22;31823;47.032;8.310;2023-08-31T10:54:19;17.00;99.90
46085;DHT22;31823;47.032;8.310;2023-08-31T10:59:17;17.20;99.90
46085;DHT22;31823;47.032;8.310;2023-08-31T11:01:59;17.20;99.90
46085;DHT22;31823;47.032;8.310;2023-08-31T11:04:28;17.20;99.90
46085;DHT22;31823;47.032;8.310;2023-08-31T11:09:38;17.10;99.90
46085;DHT22;31823;47.032;8.310;2023-08-31T11:12:04;17.10;99.90
46085;DHT22;31823;47.032;8.310;2023-08-31T11:14:30;17.00;99.90
46085;DHT22;31823;47.032;8.310;2023-08-31T11:16:56;17.10;99.90
46085;DHT22;31823;47.032;8.310;2023-08-31T11:19:21;17.10;99.90
46085;DHT22;31823;47.032;8.310;2023-08-31T11:21:47;17.00;99.90
46085;DHT22;31823;47.032;8.310;2023-08-31T11:24:13;17.00;99.90
46085;DHT22;31823;47.032;8.310;2023-08-31T11:26:38;16.80;99.90
46085;DHT22;31823;47.032;8.310;2023-08-31T11:29:08;16.70;99.90
46085;DHT22;31823;47.032;8.310;2023-08-31T11:31:38;16.70;99.90
46085;DHT22;31823;47.032;8.310;2023-08-31T11:34:05;16.80;99.90
46085;DHT22;31823;47.032;8.310;2023-08-31T11:36:31;16.90;99.90
46085;DHT22;31823;47.032;8.310;2023-08-31T11:38:57;16.80;99.90
46085;DHT22;31823;47.032;8.310;2023-08-31T11:41:23;16.60;99.90
46085;DHT22;31823;47.032;8.310;2023-08-31T11:43:49;16.80;99.90
46085;DHT22;31823;47.032;8.310;2023-08-31T11:46:16;16.70;99.90
46085;DHT22;31823;47.032;8.310;2023-08-31T11:48:43;16.70;99.90
46085;DHT22;31823;47.032;8.310;2023-08-31T11:51:09;16.70;99.90
46085;DHT22;31823;47.032;8.310;2023-08-31T11:53:35;16.80;99.90
46085;DHT22;31823;47.032;8.310;2023-08-31T11:56:04;16.70;99.90
46085;DHT22;31823;47.032;8.310;2023-08-31T11:58:30;16.40;99.90
46085;DHT22;31823;47.032;8.310;2023-08-31T12:00:59;16.30;99.90
46085;DHT22;31823;47.032;8.310;2023-08-31T12:03:26;16.50;99.90
46085;DHT22;31823;47.032;8.310;2023-08-31T12:05:54;16.60;99.90
46085;DHT22;31823;47.032;8.310;2023-08-31T12:08:26;16.70;99.90
46085;DHT22;31823;47.032;8.310;2023-08-31T12:10:53;16.80;99.90
46085;DHT22;31823;47.032;8.310;2023-08-31T12:13:19;16.80;99.90
46085;DHT22;31823;47.032;8.310;2023-08-31T12:15:44;16.80;99.90
46085;DHT22;31823;47.032;8.310;2023-08-31T12:18:12;16.90;99.90
46085;DHT22;31823;47.032;8.310;2023-08-31T12:20:49;16.90;99.90
46085;DHT22;31823;47.032;8.310;2023-08-31T12:23:17;16.80;99.90
46085;DHT22;31823;47.032;8.310;2023-08-31T12:25:50;16.90;99.90
46085;DHT22;31823;47.032;8.310;2023-08-31T12:28:17;16.90;99.90
46085;DHT22;31823;47.032;8.310;2023-08-31T12:30:49;17.00;99.90
46085;DHT22;31823;47.032;8.310;2023-08-31T12:33:16;17.00;99.90
46085;DHT22;31823;47.032;8.310;2023-08-31T12:35:41;17.00;99.90
46085;DHT22;31823;47.032;8.310;2023-08-31T12:38:07;17.00;99.90
46085;DHT22;31823;47.032;8.310;2023-08-31T12:40:32;17.10;99.90
46085;DHT22;31823;47.032;8.310;2023-08-31T12:42:58;17.00;99.90
46085;DHT22;31823;47.032;8.310;2023-08-31T12:45:23;17.20;99.90
46085;DHT22;31823;47.032;8.310;2023-08-31T12:47:49;17.30;99.90
46085;DHT22;31823;47.032;8.310;2023-08-31T12:50:15;17.30;99.90
46085;DHT22;31823;47.032;8.310;2023-08-31T12:52:41;17.40;99.90
46085;DHT22;31823;47.032;8.310;2023-08-31T12:55:11;17.20;99.90
46085;DHT22;31823;47.032;8.310;2023-08-31T12:57:37;17.20;99.90
46085;DHT22;31823;47.032;8.310;2023-08-31T13:00:03;17.20;99.90
46085;DHT22;31823;47.032;8.310;2023-08-31T13:02:30;17.20;99.90
46085;DHT22;31823;47.032;8.310;2023-08-31T13:04:56;17.10;99.90
46085;DHT22;31823;47.032;8.310;2023-08-31T13:07:21;17.10;99.90
46085;DHT22;31823;47.032;8.310;2023-08-31T13:09:47;17.30;99.90
46085;DHT22;31823;47.032;8.310;2023-08-31T13:12:12;17.50;99.90
46085;DHT22;31823;47.032;8.310;2023-08-31T13:14:38;17.60;99.90
46085;DHT22;31823;47.032;8.310;2023-08-31T13:17:04;17.50;99.90
46085;DHT22;31823;47.032;8.310;2023-08-31T13:19:31;17.60;99.90
46085;DHT22;31823;47.032;8.310;2023-08-31T13:21:56;17.50;99.90
46085;DHT22;31823;47.032;8.310;2023-08-31T13:24:22;17.60;99.90
46085;DHT22;31823;47.032;8.310;2023-08-31T13:26:48;17.70;99.90
46085;DHT22;31823;47.032;8.310;2023-08-31T13:29:14;17.70;99.90
46085;DHT22;31823;47.032;8.310;2023-08-31T13:31:40;17.70;99.90
46085;DHT22;31823;47.032;8.310;2023-08-31T13:34:05;17.90;99.90
46085;DHT22;31823;47.032;8.310;2023-08-31T13:36:33;17.90;99.90
46085;DHT22;31823;47.032;8.310;2023-08-31T13:38:59;18.10;99.90
46085;DHT22;31823;47.032;8.310;2023-08-31T13:41:24;18.20;99.90
46085;DHT22;31823;47.032;8.310;2023-08-31T13:43:50;18.00;99.90
46085;DHT22;31823;47.032;8.310;2023-08-31T13:46:17;17.80;99.90
46085;DHT22;31823;47.032;8.310;2023-08-31T13:48:42;17.90;99.90
46085;DHT22;31823;47.032;8.310;2023-08-31T13:51:08;18.10;99.90
46085;DHT22;31823;47.032;8.310;2023-08-31T13:53:33;18.20;99.90
46085;DHT22;31823;47.032;8.310;2023-08-31T13:55:59;18.20;99.90
46085;DHT22;31823;47.032;8.310;2023-08-31T13:58:25;18.20;99.90
46085;DHT22;31823;47.032;8.310;2023-08-31T14:00:51;18.40;99.90
46085;DHT22;31823;47.032;8.310;2023-08-31T14:03:16;18.60;99.90
46085;DHT22;31823;47.032;8.310;2023-08-31T14:05:42;18.70;99.90
46085;DHT22;31823;47.032;8.310;2023-08-31T14:08:08;18.70;99.90
46085;DHT22;31823;47.032;8.310;2023-08-31T14:10:33;18.70;99.90
46085;DHT22;31823;47.032;8.310;2023-08-31T14:12:59;19.10;99.90
46085;DHT22;31823;47.032;8.310;2023-08-31T14:15:25;19.40;99.90
46085;DHT22;31823;47.032;8.310;2023-08-31T14:17:51;19.50;99.90
46085;DHT22;31823;47.032;8.310;2023-08-31T14:20:18;19.40;99.90
46085;DHT22;31823;47.032;8.310;2023-08-31T14:22:44;19.30;99.90
46085;DHT22;31823;47.032;8.310;2023-08-31T14:25:11;19.30;99.90
46085;DHT22;31823;47.032;8.310;2023-08-31T14:27:37;18.90;99.90
46085;DHT22;31823;47.032;8.310;2023-08-31T14:30:05;18.80;99.90
46085;DHT22;31823;47.032;8.310;2023-08-31T14:32:31;18.80;99.90
46085;DHT22;31823;47.032;8.310;2023-08-31T14:34:57;18.70;99.90
46085;DHT22;31823;47.032;8.310;2023-08-31T14:37:22;18.20;99.90
46085;DHT22;31823;47.032;8.310;2023-08-31T14:39:48;18.10;99.90
46085;DHT22;31823;47.032;8.310;2023-08-31T14:42:13;18.00;99.90
46085;DHT22;31823;47.032;8.310;2023-08-31T14:44:40;18.10;99.90
46085;DHT22;31823;47.032;8.310;2023-08-31T14:47:06;17.90;99.90
46085;DHT22;31823;47.032;8.310;2023-08-31T14:49:31;17.90;99.90
46085;DHT22;31823;47.032;8.310;2023-08-31T14:51:57;17.80;99.90
46085;DHT22;31823;47.032;8.310;2023-08-31T14:54:23;17.80;99.90
46085;DHT22;31823;47.032;8.310;2023-08-31T14:56:49;18.00;99.90
46085;DHT22;31823;47.032;8.310;2023-08-31T14:59:14;18.00;99.90
46085;DHT22;31823;47.032;8.310;2023-08-31T15:01:40;18.20;99.90
46085;DHT22;31823;47.032;8.310;2023-08-31T15:04:05;18.10;99.90
46085;DHT22;31823;47.032;8.310;2023-08-31T15:06:31;18.00;99.90
46085;DHT22;31823;47.032;8.310;2023-08-31T15:08:58;17.90;99.90
46085;DHT22;31823;47.032;8.310;2023-08-31T15:11:28;17.90;99.90
46085;DHT22;31823;47.032;8.310;2023-08-31T15:13:53;17.90;99.90
46085;DHT22;31823;47.032;8.310;2023-08-31T15:16:19;17.50;99.90
46085;DHT22;31823;47.032;8.310;2023-08-31T15:18:44;17.40;99.90
46085;DHT22;31823;47.032;8.310;2023-08-31T15:21:12;17.40;99.90
46085;DHT22;31823;47.032;8.310;2023-08-31T15:23:38;17.40;99.90
46085;DHT22;31823;47.032;8.310;2023-08-31T15:26:03;17.60;99.90
46085;DHT22;31823;47.032;8.310;2023-08-31T15:28:29;17.70;99.90
46085;DHT22;31823;47.032;8.310;2023-08-31T15:30:55;17.90;99.90
46085;DHT22;31823;47.032;8.310;2023-08-31T15:33:20;18.20;99.90
46085;DHT22;31823;47.032;8.310;2023-08-31T15:35:46;18.40;99.90
46085;DHT22;31823;47.032;8.310;2023-08-31T15:38:11;19.00;99.90
46085;DHT22;31823;47.032;8.310;2023-08-31T15:40:37;19.30;99.90